Green Bay, Virginia
Current Conditions -  °F | °C
As of 3:35 PM on Saturday 25 Oct 2014 (Local Time) from KW81 Reporting Station
Clear Clear  
Wind Chill: 69°   Ceiling: Unl
Heat Index: 69°   Visibility: 10mi
Dew Point: 39°   Wind: 7mph
Humidity: 33%   Direction: 190°S
Pressure: 29.87"   Gusts: NA
Location:  37.13°N, 78.31°W
Report Text: KW81 251935Z AUTO 19006KT 10SM CLR 21/04 A2987 RMK AO1 T02070037
Loading
Personal Weather Stations






























Interactive Weather Map
Tropical Storm Tracking
New forecast layout! Learn more

10-Day Weather Forecast

Advertisements
Track Severe Weather on mobile